Tobago, Trinidad and Tobago
Current Conditions -  °F | °C
As of 6:00 PM on Friday 19 Dec 2014 (Local Time) from TTCP Reporting Station
Few Clouds Few Clouds  
Wind Chill: 27°   Ceiling: Unl
Heat Index: 29°   Visibility: 6mi
Dew Point: 21°   Wind: 0mph
Humidity: 70%   Direction: NA
Pressure: 29.88"   Gusts: NA
Location:  11.22°N, 60.67°W
Report Text: TTCP 192200Z 00000KT 9999 FEW018 27/21 Q1012 NOSIG
Loading
Personal Weather Stations






























Interactive Weather Map New forecast layout! Learn more

10-Day Weather Forecast

Advertisements
Track Severe Weather on mobile